Orange City, IA (51041)

6:17 PM CDT on July 29, 2016 (GMT -0500)
NWC Rec Center | | Change Station

Elev 1411 ft 43.00 °N, 96.06 °W | Updated 16 seconds ago

Partly Cloudy
Partly Cloudy
77.0 °F
Feels Like 79 °F
N
4.9
Wind Variable Wind from NE
Gusts 6.0 mph

Today
High -- | Low -- °F
--% Chance of Precip.
Yesterday
High -- | Low -- °F
Precip. -- in
Pressure 30.03 in
Visibility 10.0 miles
Clouds Few 8000 ft
Few 9000 ft
Heat Index 79 °F
Dew Point 63 °F
Humidity 62%
Rainfall in
Snow Depth Not available.
6:12 AM 8:48 PM
Waning Crescent, 18% visible
METAR KLRJ 292255Z AUTO VRB03KT 10SM FEW080 FEW090 24/16 A3003 RMK AO2
Pressure 30.03 in
Visibility 10.0 miles
Clouds Few 8000 ft
Few 9000 ft
Heat Index 79 °F
Dew Point 63 °F
Humidity 62%
Rainfall in
Snow Depth Not available.
6:12 AM 8:48 PM
Waning Crescent, 18% visible
METAR KLRJ 292255Z AUTO VRB03KT 10SM FEW080 FEW090 24/16 A3003 RMK AO2

10-Day Weather Forecast

Almanac

Astronomy

Jul. 29, 2016 Rise Set
Actual Time
Civil Twilight
Nautical Twilight
Astronomical Twilight
Moon
Length of Visible Light
Length of Day
Tomorrow will be .
, % of the Moon is Illuminated

Today's Extremes

State Highs State Lows

Community

WunderPhotos

Upload Photos

1,928,441 photos uploaded!

WunderBlog® & News

Nearby

Air Quality

  Air Quality AQ Index Pollutant
Not available.

Snow Depth

Station Depth Elevation

Earthquake Activity

City Distance Mag. Time & Date
Minimum magnitude displayed is 2.5.

Coastal Water Temperatures

Place Temperature

Stations

Nearby Weather Stations

Station Location Temp. Windchill Dew Point Humidity Wind Precip. Elev Updated Type
                   

Watches & Warnings

There are currently no watches in effect.